createdAt,value
2017-08-30T00:02:21.337Z,71.14
2017-08-30T00:04:49.931Z,71.44
2017-08-30T00:07:19.636Z,71.00
2017-08-30T00:09:49.260Z,70.95
2017-08-30T00:12:18.347Z,70.78
2017-08-30T00:14:46.699Z,70.84
2017-08-30T00:17:16.096Z,71.34
2017-08-30T00:19:44.515Z,71.68
2017-08-30T00:22:12.867Z,72.85
2017-08-30T00:27:55.830Z,71.77
2017-08-30T00:30:26.839Z,71.41
2017-08-30T00:32:55.411Z,70.67
2017-08-30T00:35:23.784Z,70.13
2017-08-30T00:37:52.461Z,70.18
2017-08-30T00:40:21.335Z,70.48
2017-08-30T00:42:49.714Z,70.31
2017-08-30T00:45:18.655Z,69.53
2017-08-30T00:47:47.033Z,69.37
2017-08-30T00:50:16.435Z,69.54
2017-08-30T00:52:45.138Z,69.43
2017-08-30T00:55:14.287Z,68.94
2017-08-30T00:57:42.621Z,69.04
2017-08-30T01:00:12.232Z,68.84
2017-08-30T01:02:41.018Z,69.00
2017-08-30T01:05:09.386Z,68.36
2017-08-30T01:07:39.053Z,68.04
2017-08-30T01:10:09.569Z,68.12
2017-08-30T01:12:38.124Z,68.39
2017-08-30T01:15:07.246Z,69.09
2017-08-30T01:17:35.604Z,68.94
2017-08-30T01:20:03.944Z,69.74
2017-08-30T01:22:32.761Z,69.47
2017-08-30T01:25:01.126Z,70.15
2017-08-30T01:27:30.275Z,69.52
2017-08-30T01:29:58.965Z,69.77
2017-08-30T01:32:27.326Z,70.81
2017-08-30T01:34:55.682Z,71.44
2017-08-30T01:37:24.532Z,71.65
2017-08-30T01:39:52.954Z,72.65
2017-08-30T01:42:21.291Z,72.81
2017-08-30T01:44:50.425Z,72.67
2017-08-30T01:47:19.413Z,72.08
2017-08-30T01:49:48.539Z,72.41
2017-08-30T01:52:17.404Z,72.03
2017-08-30T01:54:45.747Z,72.05
2017-08-30T01:57:14.091Z,71.62
2017-08-30T01:59:42.779Z,71.64
2017-08-30T02:02:11.130Z,71.66
2017-08-30T02:04:39.481Z,71.41
2017-08-30T02:07:09.184Z,71.29
2017-08-30T02:09:37.549Z,71.60
2017-08-30T02:12:06.013Z,71.69
2017-08-30T02:14:34.891Z,71.76
2017-08-30T02:17:03.241Z,71.80
2017-08-30T02:19:31.607Z,71.65
2017-08-30T02:22:00.268Z,71.87
2017-08-30T02:24:28.633Z,72.08
2017-08-30T02:26:57.117Z,72.07
2017-08-30T02:29:26.633Z,72.64
2017-08-30T02:31:55.753Z,72.73
2017-08-30T02:34:24.892Z,72.42
2017-08-30T02:36:53.585Z,72.35
2017-08-30T02:39:21.962Z,72.74
2017-08-30T02:41:50.328Z,72.70
2017-08-30T02:44:20.542Z,72.45
2017-08-30T02:46:49.126Z,71.81
2017-08-30T02:49:17.469Z,71.43
2017-08-30T02:51:46.659Z,71.44
2017-08-30T02:54:15.027Z,71.90
2017-08-30T02:56:43.922Z,71.54
2017-08-30T02:59:12.949Z,71.31
2017-08-30T03:01:43.073Z,71.54
2017-08-30T03:04:12.209Z,71.97
2017-08-30T03:06:40.879Z,72.14
2017-08-30T03:09:10.088Z,72.24
2017-08-30T03:11:38.450Z,71.79
2017-08-30T03:14:07.087Z,71.59
2017-08-30T03:16:35.451Z,71.83
2017-08-30T03:19:03.798Z,71.42
2017-08-30T03:21:32.541Z,71.77
2017-08-30T03:24:01.627Z,71.93
2017-08-30T03:26:30.418Z,71.45
2017-08-30T03:28:59.042Z,71.26
2017-08-30T03:31:27.394Z,71.17
2017-08-30T03:33:56.182Z,70.52
2017-08-30T03:36:24.990Z,70.60
2017-08-30T03:38:53.675Z,70.40
2017-08-30T03:41:22.010Z,70.43
2017-08-30T03:43:52.726Z,70.65
2017-08-30T03:46:21.109Z,71.19
2017-08-30T03:48:49.466Z,71.47
2017-08-30T03:51:18.956Z,71.42
2017-08-30T03:53:47.321Z,73.44
2017-08-30T03:56:16.313Z,73.37
2017-08-30T03:58:45.126Z,72.88
2017-08-30T04:01:13.695Z,72.41
2017-08-30T04:03:42.055Z,72.71
2017-08-30T04:06:11.538Z,72.30
2017-08-30T04:08:40.765Z,72.45
2017-08-30T04:11:09.120Z,73.20
2017-08-30T04:13:38.227Z,73.07
2017-08-30T04:16:06.575Z,72.90
2017-08-30T04:18:35.519Z,72.58
2017-08-30T04:21:05.057Z,72.28
2017-08-30T04:23:33.552Z,72.56
2017-08-30T04:26:03.259Z,72.65
2017-08-30T04:28:32.056Z,72.54
2017-08-30T04:31:00.421Z,71.86
2017-08-30T04:33:28.779Z,71.73
2017-08-30T04:35:57.546Z,71.40
2017-08-30T04:38:26.409Z,71.10
2017-08-30T04:40:54.775Z,70.76
2017-08-30T04:43:23.404Z,70.32
2017-08-30T04:45:52.673Z,70.31
2017-08-30T04:48:21.036Z,69.96
2017-08-30T04:50:49.751Z,70.33
2017-08-30T04:53:18.945Z,71.08
2017-08-30T04:55:47.734Z,71.12
2017-08-30T04:58:16.442Z,70.97
2017-08-30T05:00:45.678Z,70.54
2017-08-30T05:03:14.847Z,69.90
2017-08-30T05:05:43.903Z,68.80
2017-08-30T05:08:12.254Z,68.30
2017-08-30T05:10:40.616Z,68.38
2017-08-30T05:13:10.361Z,67.85
2017-08-30T05:15:38.703Z,68.21
2017-08-30T05:18:07.052Z,67.97
2017-08-30T05:20:35.992Z,67.08
2017-08-30T05:23:04.358Z,67.16
2017-08-30T05:25:32.734Z,67.57
2017-08-30T05:28:02.424Z,67.44
2017-08-30T05:30:32.136Z,65.98
2017-08-30T05:33:02.898Z,65.47
2017-08-30T05:35:31.585Z,64.52
2017-08-30T05:38:00.986Z,63.76
2017-08-30T05:40:30.203Z,63.30
2017-08-30T05:42:58.559Z,62.60
2017-08-30T05:45:27.750Z,61.87
2017-08-30T05:47:57.522Z,61.46
2017-08-30T05:52:06.566Z,61.37
2017-08-30T05:54:35.407Z,61.34
2017-08-30T05:57:03.767Z,61.18
2017-08-30T05:59:32.131Z,61.24
2017-08-30T06:02:01.291Z,61.42
2017-08-30T06:04:29.900Z,60.49
2017-08-30T06:06:58.248Z,60.50
2017-08-30T06:09:26.893Z,61.04
2017-08-30T06:11:55.244Z,60.91
2017-08-30T06:14:24.383Z,61.01
2017-08-30T06:16:53.375Z,61.46
2017-08-30T06:19:25.337Z,60.96
2017-08-30T06:21:53.715Z,60.18
2017-08-30T06:24:23.151Z,60.55
2017-08-30T06:26:53.939Z,59.54
2017-08-30T06:29:23.186Z,60.24
2017-08-30T06:31:52.055Z,61.51
2017-08-30T06:34:20.414Z,61.40
2017-08-30T06:36:48.820Z,60.07
2017-08-30T06:39:17.725Z,59.91
2017-08-30T06:41:46.075Z,60.78
2017-08-30T06:44:14.445Z,59.78
2017-08-30T06:46:44.231Z,59.96
2017-08-30T06:49:12.568Z,58.97
2017-08-30T06:51:40.918Z,58.32
2017-08-30T06:54:09.556Z,57.58
2017-08-30T06:56:37.898Z,58.05
2017-08-30T06:59:06.280Z,57.93
2017-08-30T07:01:34.989Z,57.30
2017-08-30T07:04:03.781Z,55.57
2017-08-30T07:06:32.254Z,55.25
2017-08-30T07:09:00.953Z,54.44
2017-08-30T07:11:29.612Z,54.40
2017-08-30T07:13:58.944Z,53.30
2017-08-30T07:16:27.716Z,52.64
2017-08-30T07:18:56.093Z,51.39
2017-08-30T07:21:24.909Z,51.61
2017-08-30T07:23:53.931Z,50.63
2017-08-30T07:26:22.639Z,50.21
2017-08-30T07:28:51.011Z,50.54
2017-08-30T07:31:20.212Z,49.08
2017-08-30T07:33:48.579Z,49.55
2017-08-30T07:36:16.991Z,50.27
2017-08-30T07:38:45.662Z,50.63
2017-08-30T07:41:14.092Z,49.92
2017-08-30T07:43:43.233Z,48.92
2017-08-30T07:46:14.254Z,48.50
2017-08-30T07:48:42.652Z,49.22
2017-08-30T07:51:12.861Z,50.55
2017-08-30T07:53:42.448Z,50.00
2017-08-30T07:56:10.849Z,49.76
2017-08-30T07:58:39.427Z,48.59
2017-08-30T08:01:08.063Z,46.39
2017-08-30T08:03:37.059Z,45.26
2017-08-30T08:06:05.453Z,44.24
2017-08-30T08:08:34.241Z,44.13
2017-08-30T08:11:03.336Z,43.45
2017-08-30T08:13:31.800Z,42.83
2017-08-30T08:16:00.539Z,42.81
2017-08-30T08:18:28.913Z,43.08
2017-08-30T08:20:57.272Z,42.17
2017-08-30T08:23:26.044Z,43.38
2017-08-30T08:25:55.073Z,42.77
2017-08-30T08:28:23.434Z,42.39
2017-08-30T08:30:52.243Z,40.71
2017-08-30T08:33:20.604Z,40.88
2017-08-30T08:35:48.980Z,40.10
2017-08-30T08:38:17.631Z,39.81
2017-08-30T08:40:46.010Z,39.72
2017-08-30T08:43:14.414Z,39.94
2017-08-30T08:45:43.620Z,42.65
2017-08-30T08:48:12.760Z,42.13
2017-08-30T08:50:41.640Z,40.51
2017-08-30T08:53:10.497Z,40.02
2017-08-30T08:55:38.914Z,39.73
2017-08-30T08:58:08.177Z,39.81
2017-08-30T09:00:37.718Z,39.88
2017-08-30T09:03:06.872Z,39.41
2017-08-30T09:05:35.251Z,38.43
2017-08-30T09:08:03.942Z,36.46
2017-08-30T09:10:32.279Z,34.63
2017-08-30T09:13:00.669Z,36.17
2017-08-30T09:15:29.516Z,34.33
2017-08-30T09:17:57.881Z,32.19
2017-08-30T09:20:27.060Z,33.17
2017-08-30T09:22:55.783Z,33.54
2017-08-30T09:25:24.967Z,35.84
2017-08-30T09:27:54.109Z,34.05
2017-08-30T09:30:22.768Z,32.69
2017-08-30T09:32:51.156Z,31.99
2017-08-30T09:35:20.653Z,30.30
2017-08-30T09:37:49.685Z,31.45
2017-08-30T09:40:18.045Z,31.90
2017-08-30T09:42:48.015Z,34.02
2017-08-30T09:45:17.720Z,33.72
2017-08-30T09:47:46.104Z,32.25
2017-08-30T09:50:14.608Z,30.60
2017-08-30T09:52:43.909Z,30.69
2017-08-30T09:55:13.118Z,30.01
2017-08-30T09:57:42.109Z,29.50
2017-08-30T10:00:10.906Z,30.94
2017-08-30T10:02:39.286Z,29.29
2017-08-30T10:05:08.201Z,28.32
2017-08-30T10:07:37.860Z,29.07
2017-08-30T10:10:06.947Z,28.78
2017-08-30T10:12:35.309Z,28.65
2017-08-30T10:15:04.075Z,28.04
2017-08-30T10:17:32.631Z,28.65
2017-08-30T10:20:02.067Z,30.72
2017-08-30T10:22:31.162Z,30.99
2017-08-30T10:25:00.352Z,29.54
2017-08-30T10:27:29.523Z,28.37
2017-08-30T10:29:58.200Z,29.61
2017-08-30T10:32:26.589Z,28.43
2017-08-30T10:34:54.943Z,27.31
2017-08-30T10:37:23.689Z,26.57
2017-08-30T10:39:52.911Z,25.82
2017-08-30T10:42:21.294Z,26.05
2017-08-30T10:44:49.979Z,26.13
2017-08-30T10:47:18.317Z,24.92
2017-08-30T10:49:46.690Z,26.08
2017-08-30T10:52:15.885Z,26.16
2017-08-30T10:54:44.292Z,25.68
2017-08-30T10:57:12.647Z,24.41
2017-08-30T10:59:41.442Z,25.40
2017-08-30T11:02:09.908Z,25.02
2017-08-30T11:04:38.410Z,26.10
2017-08-30T11:07:07.279Z,26.54
2017-08-30T11:09:35.634Z,26.51
2017-08-30T11:12:04.581Z,27.66
2017-08-30T11:14:33.295Z,25.90
2017-08-30T11:17:01.634Z,26.42
2017-08-30T11:19:30.046Z,25.10
2017-08-30T11:21:58.838Z,24.54
2017-08-30T11:24:28.880Z,24.14
2017-08-30T11:26:57.362Z,24.64
2017-08-30T11:29:27.081Z,26.32
2017-08-30T11:31:55.473Z,24.95
2017-08-30T11:34:23.826Z,24.96
2017-08-30T11:36:52.680Z,27.19
2017-08-30T11:39:21.032Z,26.92
2017-08-30T11:41:49.388Z,26.29
2017-08-30T11:44:18.633Z,25.83
2017-08-30T11:46:47.651Z,25.47
2017-08-30T11:49:16.843Z,27.12
2017-08-30T11:51:45.647Z,26.35
2017-08-30T11:54:14.001Z,27.29
2017-08-30T11:56:43.342Z,28.09
2017-08-30T11:59:12.204Z,29.28
2017-08-30T12:01:40.533Z,29.26
2017-08-30T12:04:08.903Z,30.41
2017-08-30T12:06:37.560Z,31.76
2017-08-30T12:09:07.580Z,31.41
2017-08-30T12:11:37.364Z,29.84
2017-08-30T12:14:06.136Z,30.01
2017-08-30T12:16:34.543Z,30.30
2017-08-30T12:19:03.247Z,30.33
2017-08-30T12:21:32.424Z,29.46
2017-08-30T12:24:00.993Z,29.81
2017-08-30T12:26:30.927Z,30.37
2017-08-30T12:29:01.556Z,32.64
2017-08-30T12:31:29.898Z,32.88
2017-08-30T12:33:58.863Z,33.23
2017-08-30T12:36:27.630Z,34.08
2017-08-30T12:39:01.463Z,34.75
2017-08-30T12:41:30.186Z,35.15
2017-08-30T12:44:00.273Z,35.79
2017-08-30T12:46:28.684Z,36.61
2017-08-30T12:48:58.439Z,35.74
2017-08-30T12:51:28.252Z,36.06
2017-08-30T12:53:56.647Z,34.80
2017-08-30T12:56:25.520Z,34.12
2017-08-30T12:58:54.618Z,33.29
2017-08-30T13:01:24.504Z,32.43
2017-08-30T13:03:53.697Z,31.92
2017-08-30T13:06:22.675Z,33.34
2017-08-30T13:08:51.898Z,31.90
2017-08-30T13:11:21.559Z,32.72
2017-08-30T13:13:52.076Z,32.66
2017-08-30T13:16:21.590Z,31.72
2017-08-30T13:18:52.189Z,32.34
2017-08-30T13:21:21.356Z,32.22
2017-08-30T13:23:50.579Z,31.43
2017-08-30T13:26:19.594Z,32.82
2017-08-30T13:29:09.370Z,31.67
2017-08-30T13:31:42.801Z,31.16
2017-08-30T13:34:12.206Z,31.09
2017-08-30T13:36:40.907Z,30.26
2017-08-30T13:39:10.606Z,31.45
2017-08-30T13:41:39.160Z,32.20
2017-08-30T13:44:08.052Z,32.68
2017-08-30T13:46:37.787Z,32.99
2017-08-30T13:49:06.442Z,33.90
2017-08-30T13:51:35.737Z,34.43
2017-08-30T13:54:06.092Z,35.03
2017-08-30T13:56:35.952Z,35.43
2017-08-30T13:59:05.676Z,35.51
2017-08-30T14:01:35.945Z,36.13
2017-08-30T14:04:05.473Z,37.43
2017-08-30T14:06:36.150Z,38.04
2017-08-30T14:09:09.980Z,39.37
2017-08-30T14:11:39.517Z,40.27
2017-08-30T14:14:08.857Z,40.13
2017-08-30T14:16:38.551Z,40.97
2017-08-30T14:19:07.769Z,41.44
2017-08-30T14:21:36.185Z,41.56
2017-08-30T14:24:05.691Z,41.37
2017-08-30T14:26:34.117Z,40.51
2017-08-30T14:29:03.249Z,40.79
2017-08-30T14:31:31.934Z,40.91
2017-08-30T14:34:00.297Z,40.77
2017-08-30T14:36:29.022Z,41.09
2017-08-30T14:38:57.855Z,40.48
2017-08-30T14:41:27.031Z,41.33
2017-08-30T14:43:55.414Z,41.45
2017-08-30T14:46:24.254Z,41.43
2017-08-30T14:48:52.747Z,41.45
2017-08-30T14:51:21.181Z,41.42
2017-08-30T14:53:49.905Z,41.41
2017-08-30T14:56:18.274Z,41.41
2017-08-30T14:58:46.642Z,41.24
2017-08-30T15:01:15.558Z,41.32
2017-08-30T15:03:45.365Z,41.10
2017-08-30T15:06:14.645Z,40.96
2017-08-30T15:08:44.437Z,40.92
2017-08-30T15:11:12.804Z,41.19
2017-08-30T15:13:41.180Z,41.28
2017-08-30T15:16:10.336Z,41.79
2017-08-30T15:18:38.775Z,42.69
2017-08-30T15:21:09.325Z,43.47
2017-08-30T15:23:38.470Z,43.45
2017-08-30T15:26:06.826Z,43.43
2017-08-30T15:28:35.724Z,43.66
2017-08-30T15:31:05.312Z,43.56
2017-08-30T15:33:33.732Z,44.38
2017-08-30T15:36:02.105Z,45.09
2017-08-30T15:38:30.996Z,45.52
2017-08-30T15:41:01.640Z,44.96
2017-08-30T15:43:30.581Z,45.37
2017-08-30T15:45:59.329Z,45.35
2017-08-30T15:48:27.764Z,45.95
2017-08-30T15:50:56.118Z,45.49
2017-08-30T15:53:25.474Z,45.99
2017-08-30T15:55:53.892Z,45.60
2017-08-30T15:58:22.332Z,45.20
2017-08-30T16:00:51.397Z,45.34
2017-08-30T16:03:20.747Z,45.21
2017-08-30T16:05:49.951Z,45.19
2017-08-30T16:08:19.384Z,45.15
2017-08-30T16:10:48.422Z,44.53
2017-08-30T16:13:18.761Z,44.69
2017-08-30T16:15:48.148Z,45.08
2017-08-30T16:18:16.898Z,45.50
2017-08-30T16:20:46.078Z,45.71
2017-08-30T16:23:16.977Z,45.27
2017-08-30T16:25:45.432Z,45.39
2017-08-30T16:28:14.514Z,46.44
2017-08-30T16:30:43.384Z,46.11
2017-08-30T16:33:12.873Z,45.73
2017-08-30T16:35:43.724Z,45.58
2017-08-30T16:38:13.007Z,45.23
2017-08-30T16:40:42.482Z,45.91
2017-08-30T16:43:11.949Z,45.72
2017-08-30T16:45:41.271Z,45.92
2017-08-30T16:48:10.567Z,46.52
2017-08-30T16:50:41.562Z,46.30
2017-08-30T16:53:11.392Z,46.21
2017-08-30T16:55:40.486Z,46.29
2017-08-30T16:58:10.416Z,46.21
2017-08-30T17:00:40.119Z,46.19
2017-08-30T17:03:09.328Z,46.74
2017-08-30T17:05:39.550Z,47.68
2017-08-30T17:08:08.315Z,47.31
2017-08-30T17:10:36.939Z,47.25
2017-08-30T17:13:06.028Z,47.17
2017-08-30T17:15:37.286Z,47.30
2017-08-30T17:18:06.491Z,48.12
2017-08-30T17:20:35.144Z,48.65
2017-08-30T17:23:04.902Z,48.15
2017-08-30T17:25:34.083Z,48.20
2017-08-30T17:28:03.703Z,48.78
2017-08-30T17:30:32.591Z,49.26
2017-08-30T17:33:00.986Z,49.16
2017-08-30T17:35:30.367Z,49.00
2017-08-30T17:38:00.087Z,49.65
2017-08-30T17:40:29.565Z,50.03
2017-08-30T17:42:57.972Z,50.37
2017-08-30T17:45:26.674Z,50.72
2017-08-30T17:47:55.094Z,50.98
2017-08-30T17:50:23.494Z,51.49
2017-08-30T17:52:53.030Z,51.61
2017-08-30T17:55:22.142Z,52.04
2017-08-30T17:57:51.333Z,52.03
2017-08-30T18:00:20.309Z,52.34
2017-08-30T18:02:49.189Z,52.57
2017-08-30T18:05:18.707Z,52.91
2017-08-30T18:07:48.245Z,53.60
2017-08-30T18:10:18.235Z,53.72
2017-08-30T18:12:46.962Z,53.34
2017-08-30T18:15:16.178Z,53.92
2017-08-30T18:17:45.312Z,54.52
2017-08-30T18:20:14.031Z,53.69
2017-08-30T18:22:44.596Z,53.77
2017-08-30T18:25:13.517Z,54.10
2017-08-30T18:27:42.107Z,54.44
2017-08-30T18:30:13.167Z,54.58
2017-08-30T18:32:41.858Z,55.39
2017-08-30T18:35:11.635Z,55.26
2017-08-30T18:37:40.483Z,55.27
2017-08-30T18:40:09.054Z,55.79
2017-08-30T18:42:37.873Z,56.09
2017-08-30T18:45:07.114Z,57.35
2017-08-30T18:47:35.650Z,58.06
2017-08-30T18:50:04.671Z,58.39
2017-08-30T18:52:35.653Z,58.08
2017-08-30T18:55:05.422Z,58.28
2017-08-30T18:57:34.198Z,58.68
2017-08-30T19:00:04.376Z,58.82
2017-08-30T19:02:33.905Z,59.34
2017-08-30T19:05:03.391Z,60.08
2017-08-30T19:07:32.736Z,59.97
2017-08-30T19:10:01.239Z,59.92
2017-08-30T19:12:29.894Z,60.13
2017-08-30T19:14:59.309Z,60.55
2017-08-30T19:17:28.247Z,60.90
2017-08-30T19:19:56.759Z,60.99
2017-08-30T19:22:26.175Z,61.73
2017-08-30T19:24:59.077Z,61.96
2017-08-30T19:27:29.474Z,62.62
2017-08-30T19:29:58.378Z,62.40
2017-08-30T19:32:27.565Z,63.22
2017-08-30T19:34:56.748Z,63.45
2017-08-30T19:37:25.598Z,63.41
2017-08-30T19:39:55.114Z,63.01
2017-08-30T19:42:25.653Z,63.53
2017-08-30T19:44:54.263Z,65.80
2017-08-30T19:47:22.787Z,66.25
2017-08-30T19:49:51.639Z,65.11
2017-08-30T19:52:20.320Z,64.59
2017-08-30T19:54:49.509Z,64.17
2017-08-30T19:57:18.502Z,63.81
2017-08-30T19:59:46.988Z,63.41
2017-08-30T20:02:15.810Z,64.37
2017-08-30T20:04:45.742Z,65.56
2017-08-30T20:07:15.686Z,66.61
2017-08-30T20:09:44.081Z,66.72
2017-08-30T20:12:13.398Z,66.35
2017-08-30T20:14:41.749Z,66.42
2017-08-30T20:17:10.330Z,65.79
2017-08-30T20:19:39.005Z,66.12
2017-08-30T20:22:08.274Z,66.32
2017-08-30T20:24:36.690Z,66.21
2017-08-30T20:27:05.584Z,68.27
2017-08-30T20:29:34.725Z,68.10
2017-08-30T20:32:03.085Z,68.22
2017-08-30T20:34:31.833Z,68.90
2017-08-30T20:37:00.232Z,68.21
2017-08-30T20:39:29.201Z,67.79
2017-08-30T20:41:58.009Z,68.74
2017-08-30T20:44:26.386Z,68.34
2017-08-30T20:46:57.782Z,68.65
2017-08-30T20:49:26.647Z,69.97
2017-08-30T20:51:54.992Z,69.79
2017-08-30T20:54:23.343Z,70.02
2017-08-30T20:56:52.777Z,70.95
2017-08-30T20:59:22.029Z,70.86
2017-08-30T21:01:51.511Z,70.72
2017-08-30T21:04:20.163Z,70.91
2017-08-30T21:06:49.320Z,72.07
2017-08-30T21:09:18.552Z,72.05
2017-08-30T21:11:47.305Z,71.52
2017-08-30T21:14:15.666Z,71.94
2017-08-30T21:16:44.015Z,70.88
2017-08-30T21:19:12.871Z,71.59
2017-08-30T21:21:41.240Z,71.39
2017-08-30T21:24:09.656Z,71.53
2017-08-30T21:26:38.287Z,70.42
2017-08-30T21:29:06.639Z,71.09
2017-08-30T21:31:35.043Z,70.51
2017-08-30T21:34:03.767Z,70.77
2017-08-30T21:36:32.169Z,71.01
2017-08-30T21:39:00.888Z,70.63
2017-08-30T21:41:29.661Z,70.28
2017-08-30T21:43:58.042Z,70.48
2017-08-30T21:46:26.465Z,71.05
2017-08-30T21:48:56.179Z,70.61
2017-08-30T21:51:24.621Z,71.15
2017-08-30T21:53:53.039Z,70.79
2017-08-30T21:56:22.035Z,70.51
2017-08-30T21:58:50.390Z,70.16
2017-08-30T22:01:18.781Z,69.43
2017-08-30T22:03:48.008Z,69.28
2017-08-30T22:06:16.418Z,69.80
2017-08-30T22:08:44.804Z,69.21
2017-08-30T22:11:13.681Z,69.67
2017-08-30T22:13:42.073Z,69.69
2017-08-30T22:16:11.833Z,69.75
2017-08-30T22:18:40.571Z,69.32
2017-08-30T22:21:08.982Z,69.76
2017-08-30T22:23:37.610Z,69.41
2017-08-30T22:26:07.040Z,68.85
2017-08-30T22:28:36.481Z,69.48
2017-08-30T22:31:04.853Z,69.75
2017-08-30T22:33:33.747Z,69.69
2017-08-30T22:36:02.124Z,69.27
2017-08-30T22:38:30.719Z,68.88
2017-08-30T22:40:59.571Z,69.69
2017-08-30T22:43:27.940Z,69.85
2017-08-30T22:45:56.324Z,70.25
2017-08-30T22:48:25.290Z,69.18
2017-08-30T22:50:53.650Z,69.55
2017-08-30T22:53:22.026Z,69.50
2017-08-30T22:55:50.696Z,69.06
2017-08-30T22:58:19.040Z,69.47
2017-08-30T23:00:47.416Z,69.82
2017-08-30T23:03:16.325Z,69.59
2017-08-30T23:05:44.757Z,69.34
2017-08-30T23:08:13.150Z,69.31
2017-08-30T23:10:41.957Z,69.50
2017-08-30T23:13:10.321Z,69.39
2017-08-30T23:15:38.679Z,69.65
2017-08-30T23:18:07.849Z,70.08
2017-08-30T23:20:36.210Z,70.05
2017-08-30T23:23:04.594Z,70.67
2017-08-30T23:25:33.447Z,71.36
2017-08-30T23:28:03.272Z,71.39
2017-08-30T23:30:33.116Z,71.24
2017-08-30T23:33:02.343Z,72.12
2017-08-30T23:35:31.627Z,72.38
2017-08-30T23:37:59.993Z,73.01
2017-08-30T23:40:28.913Z,73.76
2017-08-30T23:42:57.288Z,73.47
2017-08-30T23:45:25.673Z,73.22
2017-08-30T23:47:54.739Z,73.42
2017-08-30T23:50:23.184Z,73.34
2017-08-30T23:52:51.576Z,73.49
2017-08-30T23:55:20.584Z,73.24
2017-08-30T23:57:48.949Z,73.18
